Time;durP1;ratioP1;P1;durP2;ratioP2;P2;SDS_P1;SDS_P2;PMS_P1;PMS_P2;Temp;Humidity;BMP_temperature;BMP_pressure;BME280_temperature;BME280_humidity;BME280_pressure;Samples;Min_cycle;Max_cycle;Signal;HPM_P1;HPM_P2
2022/07/09 00:02:26;;;;;;;5.32;1.20;;;24.70;68.50;;;;;;5134104;27;20043;-69
2022/07/09 00:05:30;;;;;;;2.85;1.20;;;24.70;68.50;;;;;;5134037;27;20027;-69
2022/07/09 00:08:34;;;;;;;4.10;1.77;;;24.80;68.60;;;;;;5134081;27;20501;-69
2022/07/09 00:11:38;;;;;;;5.15;1.20;;;24.80;67.70;;;;;;5133736;27;20056;-69
2022/07/09 00:14:42;;;;;;;8.30;1.40;;;24.90;68.00;;;;;;5134317;27;20031;-68
2022/07/09 00:17:46;;;;;;;3.70;1.55;;;24.90;67.80;;;;;;5133825;27;20058;-68
2022/07/09 00:20:50;;;;;;;7.03;1.27;;;24.90;68.10;;;;;;5133331;27;20038;-68
2022/07/09 00:23:57;;;;;;;3.60;1.30;;;25.00;68.10;;;;;;5135054;27;20043;-69
2022/07/09 00:27:01;;;;;;;6.20;1.48;;;25.00;67.20;;;;;;5135016;27;20101;-68
2022/07/09 00:30:06;;;;;;;13.88;1.58;;;24.90;67.00;;;;;;5132765;27;20505;-69
2022/07/09 00:33:12;;;;;;;5.70;1.27;;;24.90;67.40;;;;;;5133782;27;20390;-69
2022/07/09 00:36:17;;;;;;;3.38;1.33;;;24.90;67.80;;;;;;5136032;27;20046;-69
2022/07/09 00:39:21;;;;;;;6.13;1.20;;;24.90;67.80;;;;;;5133705;27;20023;-69
2022/07/09 00:42:25;;;;;;;3.70;1.42;;;24.90;67.60;;;;;;5134492;27;20509;-69
2022/07/09 00:45:29;;;;;;;9.73;1.48;;;24.90;67.70;;;;;;5133378;27;20042;-69
2022/07/09 00:48:33;;;;;;;3.42;1.50;;;25.00;67.90;;;;;;5133617;27;20039;-68
2022/07/09 00:51:38;;;;;;;5.18;2.22;;;25.00;68.30;;;;;;5133337;27;20054;-69
2022/07/09 00:54:43;;;;;;;3.60;1.30;;;25.00;68.20;;;;;;5133273;27;20496;-68
2022/07/09 00:57:48;;;;;;;6.28;1.95;;;24.90;68.70;;;;;;5133523;27;20390;-69
2022/07/09 01:00:52;;;;;;;3.17;1.48;;;24.60;69.70;;;;;;5133092;27;20509;-69
2022/07/09 01:03:56;;;;;;;7.88;1.60;;;24.50;69.80;;;;;;5132918;27;20038;-69
2022/07/09 01:07:00;;;;;;;4.53;1.30;;;24.50;70.30;;;;;;5133155;27;20034;-69
2022/07/09 01:10:05;;;;;;;2.83;1.50;;;24.50;69.90;;;;;;5132152;27;20383;-68
2022/07/09 01:13:10;;;;;;;6.47;1.70;;;24.40;69.90;;;;;;5132720;27;20054;-69
2022/07/09 01:16:15;;;;;;;3.67;1.20;;;24.40;69.30;;;;;;5132950;27;20034;-68
2022/07/09 01:19:19;;;;;;;11.57;1.55;;;24.40;69.60;;;;;;5132785;27;20045;-68
2022/07/09 01:22:23;;;;;;;3.88;1.58;;;24.40;69.60;;;;;;5132332;27;20097;-68
2022/07/09 01:25:47;;;;;;;3.03;1.77;;;24.30;69.00;;;;;;5132976;27;20522;-68
2022/07/09 01:54:12;;;;;;;3.05;1.50;;;24.60;69.50;;;;;;5108475;27;20391;-69
2022/07/09 01:57:16;;;;;;;7.20;1.90;;;24.70;70.20;;;;;;5108496;28;20036;-68
2022/07/09 02:00:20;;;;;;;4.60;1.65;;;24.60;70.50;;;;;;5108501;28;20044;-69
2022/07/09 02:03:23;;;;;;;3.88;1.67;;;24.60;69.90;;;;;;5108097;28;20047;-68
2022/07/09 02:06:28;;;;;;;4.32;1.73;;;24.50;70.30;;;;;;5108341;28;20039;-69
2022/07/09 02:09:34;;;;;;;3.85;1.77;;;24.40;70.70;;;;;;5107553;28;20043;-69
2022/07/09 02:12:39;;;;;;;5.75;1.95;;;24.40;70.70;;;;;;5108216;28;20035;-70
2022/07/09 02:15:44;;;;;;;3.63;2.00;;;24.30;70.70;;;;;;5108547;28;20040;-69
2022/07/09 02:18:48;;;;;;;6.03;2.22;;;24.40;70.60;;;;;;5108516;28;20032;-68
2022/07/09 02:21:52;;;;;;;6.20;1.83;;;24.30;70.60;;;;;;5108017;28;20044;-69
2022/07/09 02:24:56;;;;;;;4.90;1.77;;;24.30;70.60;;;;;;5108344;28;20525;-69
2022/07/09 02:27:59;;;;;;;7.20;1.70;;;24.30;70.10;;;;;;5107153;28;20036;-69
2022/07/09 02:31:03;;;;;;;7.13;2.17;;;24.40;70.30;;;;;;5107966;28;20036;-69
2022/07/09 02:34:07;;;;;;;5.38;1.88;;;24.40;70.00;;;;;;5107879;28;20040;-69
2022/07/09 02:37:11;;;;;;;7.22;2.03;;;24.40;69.70;;;;;;5107703;28;20040;-70
2022/07/09 02:40:15;;;;;;;5.13;1.85;;;24.40;69.40;;;;;;5107740;28;20483;-68
2022/07/09 02:43:19;;;;;;;7.50;1.92;;;24.40;69.50;;;;;;5107179;28;20052;-68
2022/07/09 02:46:23;;;;;;;7.07;2.30;;;24.30;69.60;;;;;;5107728;28;20036;-69
2022/07/09 02:49:27;;;;;;;3.70;2.30;;;24.30;70.00;;;;;;5107178;28;20044;-69
2022/07/09 02:52:31;;;;;;;5.57;2.33;;;24.30;70.10;;;;;;5107313;28;20048;-69
2022/07/09 02:55:35;;;;;;;7.13;2.88;;;24.30;70.10;;;;;;5094105;28;20052;-68
2022/07/09 02:58:39;;;;;;;6.50;2.63;;;24.30;70.30;;;;;;5093770;28;20368;-69
2022/07/09 03:01:43;;;;;;;9.82;3.10;;;24.30;70.20;;;;;;5094058;28;20036;-68
2022/07/09 03:04:47;;;;;;;6.80;2.97;;;24.20;70.30;;;;;;5093986;28;20044;-68
2022/07/09 03:07:50;;;;;;;6.93;3.17;;;24.10;70.80;;;;;;5094112;28;20040;-68
2022/07/09 03:10:54;;;;;;;8.27;2.90;;;24.10;71.00;;;;;;5093612;28;20372;-71
2022/07/09 03:13:59;;;;;;;7.68;3.20;;;24.10;70.80;;;;;;5093826;28;20036;-69
2022/07/09 03:17:03;;;;;;;9.43;3.17;;;24.00;71.70;;;;;;5093559;28;20028;-69
2022/07/09 03:20:07;;;;;;;8.15;3.35;;;24.10;70.70;;;;;;5093713;28;20039;-69
2022/07/09 03:23:13;;;;;;;9.50;4.07;;;24.10;70.70;;;;;;5093560;28;20044;-70
2022/07/09 03:26:17;;;;;;;7.45;3.53;;;24.00;71.90;;;;;;5093568;28;20036;-69
2022/07/09 03:29:21;;;;;;;10.85;3.75;;;24.00;71.70;;;;;;5093627;28;20040;-69
2022/07/09 03:32:25;;;;;;;10.63;3.67;;;24.00;71.80;;;;;;5093299;28;20399;-70
2022/07/09 03:35:29;;;;;;;8.13;3.58;;;24.00;72.20;;;;;;5093582;28;20035;-69
2022/07/09 03:38:33;;;;;;;10.85;3.97;;;24.10;71.60;;;;;;5092241;28;20036;-70
2022/07/09 03:41:37;;;;;;;7.22;4.05;;;24.10;72.20;;;;;;5093253;28;20578;-69
2022/07/09 03:44:41;;;;;;;8.85;3.90;;;24.10;72.30;;;;;;5093517;28;20047;-70
2022/07/09 03:47:48;;;;;;;8.13;3.72;;;23.90;72.60;;;;;;5093316;28;20471;-70
2022/07/09 03:50:52;;;;;;;9.57;4.18;;;23.80;73.50;;;;;;5093071;28;20044;-70
2022/07/09 03:53:56;;;;;;;10.10;4.20;;;23.80;73.20;;;;;;5092685;28;20032;-70
2022/07/09 03:57:00;;;;;;;8.75;4.00;;;23.80;72.70;;;;;;5092988;28;20039;-70
2022/07/09 04:00:06;;;;;;;10.15;4.10;;;23.70;72.60;;;;;;5092751;28;20036;-69
2022/07/09 04:03:16;;;;;;;11.40;4.35;;;23.60;72.90;;;;;;5092508;28;20055;-69
2022/07/09 04:06:20;;;;;;;12.57;4.25;;;23.60;72.70;;;;;;5091907;28;20043;-69
2022/07/09 04:09:24;;;;;;;8.82;4.57;;;23.60;73.40;;;;;;5093071;28;20047;-70
2022/07/09 04:12:28;;;;;;;7.22;3.97;;;23.70;72.90;;;;;;5092648;28;20372;-69
2022/07/09 04:15:32;;;;;;;12.60;5.10;;;23.70;71.10;;;;;;5091668;28;20036;-68
2022/07/09 04:18:36;;;;;;;29.67;6.18;;;23.80;71.50;;;;;;5092802;28;20616;-70
2022/07/09 04:21:40;;;;;;;18.88;3.78;;;24.00;72.10;;;;;;5092723;28;20047;-68
2022/07/09 04:24:44;;;;;;;9.88;2.80;;;24.10;71.80;;;;;;5092465;28;20048;-69
2022/07/09 04:27:48;;;;;;;8.88;2.60;;;23.90;72.20;;;;;;5092116;28;20040;-70
2022/07/09 04:30:52;;;;;;;6.28;2.30;;;23.80;72.10;;;;;;5092442;28;20036;-71
2022/07/09 04:33:57;;;;;;;3.33;1.95;;;23.80;71.80;;;;;;5092203;28;20044;-68
2022/07/09 04:37:04;;;;;;;9.00;2.50;;;23.90;71.00;;;;;;5091492;28;20031;-70
2022/07/09 04:40:09;;;;;;;6.40;2.28;;;23.80;71.70;;;;;;5092460;28;20039;-70
2022/07/09 04:43:13;;;;;;;4.88;2.17;;;23.60;72.20;;;;;;5091721;28;20055;-69
2022/07/09 04:46:17;;;;;;;7.57;2.42;;;23.70;72.10;;;;;;5091838;28;20043;-70
2022/07/09 04:49:24;;;;;;;4.03;2.00;;;23.90;71.50;;;;;;5091720;28;20056;-70
2022/07/09 04:52:28;;;;;;;10.93;2.15;;;24.20;71.40;;;;;;5091384;28;20055;-70
2022/07/09 04:55:35;;;;;;;4.95;2.10;;;24.50;70.80;;;;;;5091881;28;20104;-69
2022/07/09 04:58:51;;;;;;;9.57;2.58;;;24.90;69.30;;;;;;5092029;28;20040;-69
2022/07/09 05:01:55;;;;;;;12.88;2.50;;;25.20;68.10;;;;;;5091457;28;20387;-69
2022/07/09 05:04:59;;;;;;;9.23;2.38;;;25.20;68.00;;;;;;5091595;28;20047;-69
2022/07/09 05:08:03;;;;;;;9.65;1.75;;;25.30;67.90;;;;;;5091678;28;20501;-70
2022/07/09 05:11:07;;;;;;;6.55;2.13;;;25.40;67.40;;;;;;5091944;28;20036;-69
2022/07/09 05:14:12;;;;;;;5.13;2.08;;;25.40;67.40;;;;;;5091880;28;20052;-69
2022/07/09 05:17:16;;;;;;;6.13;2.00;;;25.60;66.50;;;;;;5091210;28;20050;-69
2022/07/09 05:20:21;;;;;;;8.15;2.15;;;25.60;66.10;;;;;;5091459;28;20048;-69
2022/07/09 05:23:25;;;;;;;6.95;2.20;;;25.60;66.20;;;;;;5091243;28;20048;-69
2022/07/09 05:26:29;;;;;;;6.97;1.90;;;25.80;65.90;;;;;;5090832;28;20043;-68
2022/07/09 05:29:33;;;;;;;7.05;2.63;;;25.80;66.20;;;;;;5091025;28;20055;-70
2022/07/09 05:32:37;;;;;;;4.90;2.40;;;25.60;66.70;;;;;;5090766;28;20047;-71
2022/07/09 05:35:41;;;;;;;11.38;2.53;;;25.60;66.50;;;;;;5091835;28;20507;-70
2022/07/09 05:38:45;;;;;;;3.22;2.33;;;25.40;66.80;;;;;;5079409;28;20051;-70
2022/07/09 05:41:49;;;;;;;5.80;2.40;;;25.50;66.60;;;;;;5092379;28;20040;-72
2022/07/09 05:44:56;;;;;;;4.35;2.28;;;25.70;66.50;;;;;;5091433;28;20059;-73
2022/07/09 05:48:00;;;;;;;6.00;2.20;;;25.80;66.10;;;;;;5091097;28;20038;-71
2022/07/09 05:51:04;;;;;;;7.88;2.42;;;26.00;65.70;;;;;;5091326;28;20049;-71
2022/07/09 05:54:07;;;;;;;6.35;1.80;;;26.40;64.30;;;;;;5090629;28;20048;-71
2022/07/09 05:57:14;;;;;;;9.10;2.03;;;26.60;63.00;;;;;;5090949;28;20643;-71
2022/07/09 06:00:19;;;;;;;12.45;1.92;;;26.70;63.40;;;;;;5090378;28;20039;-71
2022/07/09 06:03:25;;;;;;;7.18;1.90;;;26.80;63.40;;;;;;5092666;28;20047;-72
2022/07/09 06:06:32;;;;;;;3.78;1.80;;;27.00;63.30;;;;;;5091004;28;20044;-71
2022/07/09 06:09:36;;;;;;;10.25;2.40;;;27.00;62.30;;;;;;5090872;28;20056;-72
2022/07/09 06:12:41;;;;;;;11.40;2.00;;;27.10;62.70;;;;;;5090858;28;20047;-70
2022/07/09 06:15:46;;;;;;;7.90;2.25;;;26.90;63.00;;;;;;5090456;28;20644;-70
2022/07/09 06:18:50;;;;;;;6.53;2.20;;;27.00;63.30;;;;;;5090547;28;20036;-70
2022/07/09 06:21:54;;;;;;;7.40;2.22;;;27.00;63.40;;;;;;5090461;28;20582;-68
2022/07/09 06:24:58;;;;;;;7.85;2.20;;;27.20;62.20;;;;;;5090609;28;20051;-69
2022/07/09 06:28:02;;;;;;;9.88;2.50;;;27.40;61.80;;;;;;5090565;28;20040;-69
2022/07/09 06:31:06;;;;;;;6.13;2.08;;;27.30;61.60;;;;;;5094740;28;20040;-72
2022/07/09 06:34:13;;;;;;;14.50;2.15;;;27.40;60.60;;;;;;5094621;28;20032;-70
2022/07/09 06:37:17;;;;;;;8.80;1.85;;;27.70;59.70;;;;;;5093694;28;20479;-71
2022/07/09 06:40:21;;;;;;;11.27;2.20;;;27.80;59.70;;;;;;5094278;28;20032;-69
2022/07/09 06:43:25;;;;;;;8.07;2.10;;;28.10;59.60;;;;;;5094258;28;20051;-69
2022/07/09 06:46:31;;;;;;;6.53;2.42;;;28.00;59.00;;;;;;5093251;28;20028;-69
2022/07/09 06:49:35;;;;;;;13.18;2.53;;;27.70;59.70;;;;;;5093105;28;20047;-69
2022/07/09 06:52:39;;;;;;;7.03;2.30;;;27.70;60.30;;;;;;5093541;28;20090;-68
2022/07/09 06:55:43;;;;;;;5.60;2.40;;;28.20;59.90;;;;;;5093794;28;20051;-69
2022/07/09 06:58:47;;;;;;;8.32;2.30;;;28.40;59.40;;;;;;5094002;28;20043;-71
2022/07/09 07:01:51;;;;;;;10.35;2.95;;;28.10;60.10;;;;;;5093777;28;20048;-70
2022/07/09 07:04:55;;;;;;;15.48;2.78;;;28.10;60.10;;;;;;5093530;28;20055;-71
2022/07/09 07:08:00;;;;;;;5.50;2.05;;;27.90;60.70;;;;;;5093071;28;20035;-71
2022/07/09 07:11:04;;;;;;;7.80;2.25;;;27.70;61.70;;;;;;5093311;28;20043;-69
2022/07/09 07:14:09;;;;;;;6.45;2.20;;;27.70;62.50;;;;;;5093270;28;20032;-68
2022/07/09 07:17:13;;;;;;;5.05;2.72;;;28.20;61.90;;;;;;5093243;28;20036;-70
2022/07/09 07:20:19;;;;;;;12.35;2.25;;;28.60;61.50;;;;;;5093248;28;20155;-70
2022/07/09 07:23:23;;;;;;;8.23;2.60;;;28.80;60.60;;;;;;5091835;28;20055;-69
2022/07/09 07:26:27;;;;;;;8.27;2.28;;;28.80;61.00;;;;;;5093650;28;20040;-68
2022/07/09 07:29:31;;;;;;;20.08;2.22;;;28.80;60.80;;;;;;5092555;28;20053;-68
2022/07/09 07:32:35;;;;;;;158.73;7.60;;;28.70;59.80;;;;;;5092688;28;20047;-68
2022/07/09 07:35:39;;;;;;;12.43;2.58;;;28.60;58.70;;;;;;5092604;28;20043;-68
2022/07/09 07:38:45;;;;;;;8.43;2.10;;;28.70;58.30;;;;;;5093010;28;20051;-67
2022/07/09 07:41:49;;;;;;;15.80;2.47;;;28.80;59.50;;;;;;5093441;28;20039;-71
2022/07/09 07:44:53;;;;;;;13.88;2.70;;;28.90;59.30;;;;;;5093120;28;20051;-69
2022/07/09 07:47:58;;;;;;;11.32;3.17;;;29.00;59.20;;;;;;5093180;28;20055;-71
2022/07/09 07:51:03;;;;;;;10.98;2.35;;;28.70;59.50;;;;;;5093163;28;20055;-68
2022/07/09 07:54:07;;;;;;;7.50;2.03;;;28.90;60.20;;;;;;5092793;28;20051;-67
2022/07/09 07:57:11;;;;;;;11.52;2.15;;;28.80;59.50;;;;;;5093030;28;20036;-68
2022/07/09 08:00:15;;;;;;;3.58;1.60;;;28.80;59.90;;;;;;5093062;28;20106;-68
2022/07/09 08:03:21;;;;;;;13.02;2.25;;;28.50;60.10;;;;;;5092517;28;20407;-66
2022/07/09 08:06:25;;;;;;;7.72;2.17;;;28.50;60.40;;;;;;5092766;28;20513;-72
2022/07/09 08:09:29;;;;;;;15.18;2.17;;;28.50;60.30;;;;;;5091635;28;20483;-68
2022/07/09 08:12:34;;;;;;;25.65;2.78;;;28.50;60.00;;;;;;5091080;28;20043;-69
2022/07/09 08:15:38;;;;;;;10.90;2.00;;;28.40;60.20;;;;;;5091938;28;20035;-68
2022/07/09 08:18:42;;;;;;;9.98;2.42;;;28.80;60.00;;;;;;5089910;28;20399;-70
2022/07/09 08:21:46;;;;;;;13.13;2.05;;;29.00;59.90;;;;;;5090379;28;20042;-70
2022/07/09 08:24:50;;;;;;;21.98;2.33;;;29.00;59.30;;;;;;5089699;28;20055;-71
2022/07/09 08:32:33;;;;;;;19.88;2.15;;;29.00;59.00;;;;;;5094210;28;20036;-70
2022/07/09 08:54:16;;;;;;;4.13;1.75;;;29.20;57.80;;;;;;2283988;28;20408;-65
2022/07/09 08:57:19;;;;;;;8.63;2.17;;;29.20;57.30;;;;;;5091554;28;20047;-72
2022/07/09 09:00:23;;;;;;;7.50;1.48;;;29.20;57.50;;;;;;5091529;28;20041;-69
2022/07/09 09:03:27;;;;;;;6.43;1.90;;;29.00;57.50;;;;;;5091172;28;20036;-71
2022/07/09 09:06:37;;;;;;;8.55;1.40;;;28.80;58.00;;;;;;5091597;28;20044;-71
2022/07/09 09:09:42;;;;;;;7.43;1.90;;;29.00;56.50;;;;;;5091526;28;20048;-68
2022/07/09 09:12:46;;;;;;;6.82;1.85;;;29.40;55.90;;;;;;5091337;28;20051;-71
2022/07/09 09:16:11;;;;;;;6.30;1.70;;;29.60;56.90;;;;;;5090419;28;20047;-69
2022/07/09 09:19:15;;;;;;;9.77;1.77;;;29.30;56.40;;;;;;5091620;28;20372;-70
2022/07/09 09:22:19;;;;;;;10.98;2.00;;;29.20;56.90;;;;;;5091315;28;20043;-70
2022/07/09 09:25:23;;;;;;;7.43;1.77;;;29.20;56.40;;;;;;5091207;28;20537;-70
2022/07/09 09:28:27;;;;;;;11.63;2.33;;;29.30;57.10;;;;;;5091120;28;20514;-70
2022/07/09 09:31:35;;;;;;;6.60;1.85;;;29.50;56.90;;;;;;5091123;28;20043;-69
2022/07/09 09:34:41;;;;;;;5.05;1.48;;;29.40;56.60;;;;;;5091024;28;20047;-72
2022/07/09 09:37:45;;;;;;;14.32;2.20;;;29.50;57.80;;;;;;5090886;28;20039;-70
2022/07/09 09:40:49;;;;;;;12.10;1.80;;;29.40;57.60;;;;;;5091183;28;20051;-69
2022/07/09 09:43:56;;;;;;;9.00;1.70;;;29.20;58.10;;;;;;5090608;28;20071;-70
2022/07/09 09:47:00;;;;;;;5.10;1.60;;;29.20;57.30;;;;;;5090804;28;20040;-68
2022/07/09 09:50:04;;;;;;;6.03;2.17;;;29.20;57.70;;;;;;5090618;28;20495;-70
2022/07/09 09:53:10;;;;;;;9.27;1.92;;;29.30;57.60;;;;;;5089710;28;20506;-70
2022/07/09 09:56:14;;;;;;;5.15;1.80;;;29.20;57.90;;;;;;5090696;28;20415;-70
2022/07/09 09:59:18;;;;;;;8.73;2.10;;;29.30;58.10;;;;;;5090628;28;20038;-69
2022/07/09 10:02:24;;;;;;;4.85;1.88;;;29.30;56.50;;;;;;5091025;28;20052;-72
2022/07/09 10:05:28;;;;;;;8.25;1.90;;;29.40;56.00;;;;;;5094842;28;20044;-69
2022/07/09 10:08:32;;;;;;;11.90;2.28;;;29.40;55.20;;;;;;5094789;28;20036;-68
2022/07/09 10:11:47;;;;;;;5.07;1.48;;;29.50;56.00;;;;;;5095003;28;20051;-68
2022/07/09 10:14:50;;;;;;;10.13;2.80;;;29.50;55.80;;;;;;5094729;28;20237;-71
2022/07/09 10:17:55;;;;;;;2.67;1.20;;;29.50;55.60;;;;;;5094160;28;20059;-70
2022/07/09 10:20:59;;;;;;;6.07;1.42;;;29.50;53.80;;;;;;5094658;28;20032;-69
2022/07/09 10:24:05;;;;;;;9.55;2.25;;;29.40;54.50;;;;;;5094399;28;20506;-69
2022/07/09 10:27:10;;;;;;;5.93;2.22;;;29.40;55.40;;;;;;5094336;28;20407;-69
2022/07/09 10:30:35;;;;;;;10.90;1.65;;;29.50;55.70;;;;;;5094372;28;20071;-71
2022/07/09 10:33:48;;;;;;;6.85;1.45;;;29.50;54.20;;;;;;5094071;28;20047;-68
2022/07/09 10:37:00;;;;;;;9.40;1.38;;;29.60;54.80;;;;;;5094499;28;20049;-69
2022/07/09 10:45:20;;;;;;;14.18;1.70;;;29.60;55.30;;;;;;5099575;28;20047;-70
2022/07/09 10:48:31;;;;;;;5.82;1.58;;;29.60;54.60;;;;;;5094025;28;20047;-68
2022/07/09 10:51:38;;;;;;;5.93;1.70;;;29.80;54.10;;;;;;5094069;28;20399;-70
2022/07/09 11:50:27;;;;;;;5.03;1.20;;;29.60;52.70;;;;;;3762781;28;20047;-68
2022/07/09 11:53:31;;;;;;;10.88;1.60;;;29.50;51.60;;;;;;5093066;28;20050;-69
2022/07/09 11:56:47;;;;;;;3.80;1.30;;;29.60;52.20;;;;;;5092068;28;20399;-69
2022/07/09 11:59:52;;;;;;;11.50;1.42;;;29.60;51.70;;;;;;5093033;28;20035;-69
2022/07/09 12:02:57;;;;;;;9.43;1.50;;;29.70;51.90;;;;;;5091968;28;20047;-69
2022/07/09 12:06:01;;;;;;;3.90;1.02;;;29.60;51.30;;;;;;5092745;28;20051;-69
2022/07/09 12:09:05;;;;;;;6.82;1.25;;;29.60;50.30;;;;;;5092341;28;20040;-69
2022/07/09 12:12:09;;;;;;;3.22;1.08;;;29.60;51.40;;;;;;5092286;28;20063;-69
2022/07/09 12:15:13;;;;;;;3.00;1.10;;;29.60;50.50;;;;;;5092476;28;20043;-74
2022/07/09 12:18:17;;;;;;;3.40;1.30;;;29.70;51.30;;;;;;5092602;28;20036;-69
2022/07/09 12:21:21;;;;;;;8.43;1.02;;;29.80;51.90;;;;;;5092370;28;20040;-68
2022/07/09 12:24:25;;;;;;;2.45;0.95;;;29.70;51.20;;;;;;5092360;28;20044;-69
2022/07/09 12:27:30;;;;;;;7.82;1.30;;;29.60;51.20;;;;;;5091206;28;20047;-68
2022/07/09 12:30:35;;;;;;;3.92;1.23;;;29.50;52.50;;;;;;5092224;28;20046;-69
2022/07/09 12:33:39;;;;;;;3.47;1.40;;;29.60;52.40;;;;;;5092296;28;20052;-68
2022/07/09 12:36:44;;;;;;;10.95;1.73;;;29.70;52.70;;;;;;5091984;28;20032;-69
2022/07/09 12:39:49;;;;;;;3.78;1.10;;;29.80;52.60;;;;;;5091992;28;20043;-74
2022/07/09 12:42:53;;;;;;;7.30;1.10;;;29.90;52.20;;;;;;5092075;28;20046;-68
2022/07/09 12:45:58;;;;;;;13.52;1.50;;;29.80;51.00;;;;;;5091780;28;20047;-70
2022/07/09 12:49:02;;;;;;;4.07;1.17;;;29.70;50.50;;;;;;5091836;28;20039;-71
2022/07/09 12:52:07;;;;;;;5.88;1.77;;;29.50;50.40;;;;;;5091654;28;20415;-69
2022/07/09 12:55:11;;;;;;;5.47;1.30;;;29.30;50.40;;;;;;5091650;28;20363;-69
2022/07/09 12:58:15;;;;;;;6.05;1.20;;;29.30;51.40;;;;;;5092027;28;20047;-69
2022/07/09 13:01:19;;;;;;;4.60;1.25;;;29.50;51.70;;;;;;5091689;28;20047;-68
2022/07/09 13:04:24;;;;;;;6.45;1.60;;;29.60;51.20;;;;;;5091378;28;20403;-68
2022/07/09 13:07:28;;;;;;;2.67;0.95;;;29.70;51.50;;;;;;5091732;28;20032;-70
2022/07/09 13:10:32;;;;;;;8.52;1.27;;;29.70;51.20;;;;;;5090980;28;20044;-69
2022/07/09 13:13:36;;;;;;;4.15;1.00;;;29.50;50.80;;;;;;5091430;28;20039;-69
2022/07/09 13:16:39;;;;;;;5.65;1.52;;;29.40;51.20;;;;;;5091296;28;20165;-70
2022/07/09 13:19:43;;;;;;;5.28;1.17;;;29.50;51.20;;;;;;5091114;28;20049;-70
2022/07/09 13:22:47;;;;;;;3.85;1.27;;;29.60;51.90;;;;;;5090836;28;20032;-70
2022/07/09 13:25:51;;;;;;;5.57;1.35;;;29.60;51.20;;;;;;5091369;28;20048;-68
2022/07/09 13:28:56;;;;;;;6.13;1.15;;;29.60;51.70;;;;;;5091250;28;20047;-69
2022/07/09 13:32:01;;;;;;;8.85;1.50;;;29.50;51.40;;;;;;5091075;28;20047;-68
2022/07/09 13:35:06;;;;;;;7.85;1.13;;;29.60;52.00;;;;;;5091191;28;20499;-68
2022/07/09 13:38:10;;;;;;;10.63;1.50;;;29.50;51.90;;;;;;5090890;28;20036;-74
2022/07/09 13:41:16;;;;;;;10.02;1.10;;;29.50;52.10;;;;;;5091053;28;20613;-72
2022/07/09 13:44:20;;;;;;;19.85;1.98;;;29.50;52.10;;;;;;5090925;28;20059;-70
2022/07/09 13:47:24;;;;;;;3.85;1.30;;;29.60;52.30;;;;;;5091369;28;20043;-71
2022/07/09 13:50:28;;;;;;;6.18;1.40;;;29.50;51.00;;;;;;5089976;28;20056;-69
2022/07/09 13:53:32;;;;;;;8.75;1.60;;;29.50;51.30;;;;;;5090830;28;20036;-70
2022/07/09 13:56:36;;;;;;;4.45;1.30;;;29.60;51.80;;;;;;5090704;28;20510;-70
2022/07/09 13:59:40;;;;;;;3.88;1.40;;;29.70;51.60;;;;;;5091152;28;20043;-71
2022/07/09 14:02:44;;;;;;;3.13;1.10;;;29.80;51.90;;;;;;5090116;28;20057;-69
2022/07/09 14:05:48;;;;;;;3.33;1.05;;;29.80;51.80;;;;;;5090807;28;20036;-69
2022/07/09 14:08:52;;;;;;;4.20;1.30;;;29.80;51.20;;;;;;5078317;28;20503;-69
2022/07/09 14:11:56;;;;;;;3.00;1.45;;;29.70;50.70;;;;;;5090505;28;20036;-70
2022/07/09 14:15:01;;;;;;;7.03;1.42;;;29.70;51.90;;;;;;5090636;28;20043;-69
2022/07/09 14:18:05;;;;;;;3.35;1.10;;;29.60;51.30;;;;;;5090034;28;20053;-69
2022/07/09 14:21:09;;;;;;;3.38;1.30;;;29.50;52.00;;;;;;5090696;28;20036;-70
2022/07/09 14:24:14;;;;;;;8.52;1.40;;;29.50;51.50;;;;;;5090559;28;20040;-70
2022/07/09 14:27:18;;;;;;;7.13;1.20;;;29.50;52.10;;;;;;5090462;28;20051;-69
2022/07/09 14:30:22;;;;;;;2.63;1.20;;;29.60;52.00;;;;;;5090572;28;20051;-70
2022/07/09 14:33:26;;;;;;;3.53;1.05;;;29.50;51.60;;;;;;5090530;28;20443;-70
2022/07/09 14:36:31;;;;;;;4.45;1.25;;;29.50;52.10;;;;;;5090284;28;20040;-70
2022/07/09 14:39:35;;;;;;;9.20;2.05;;;29.50;51.70;;;;;;5090726;28;20043;-70
2022/07/09 14:42:40;;;;;;;5.75;1.58;;;29.40;51.70;;;;;;5090514;28;20044;-69
2022/07/09 14:45:44;;;;;;;3.10;1.10;;;29.30;51.50;;;;;;5089586;28;20055;-70
2022/07/09 14:48:47;;;;;;;2.78;0.90;;;29.30;52.30;;;;;;5090213;28;20052;-69
2022/07/09 14:51:51;;;;;;;7.90;1.38;;;29.30;51.80;;;;;;5093350;28;20055;-70
2022/07/09 14:54:55;;;;;;;3.08;1.02;;;29.40;52.10;;;;;;5093963;28;20032;-69
2022/07/09 14:58:00;;;;;;;3.55;1.05;;;29.40;51.50;;;;;;5093127;28;20051;-70
2022/07/09 15:01:04;;;;;;;5.63;1.30;;;29.40;51.30;;;;;;5094027;28;20053;-70
2022/07/09 15:04:11;;;;;;;4.07;1.10;;;29.30;51.20;;;;;;5093954;28;20048;-70
2022/07/09 15:07:15;;;;;;;5.28;1.30;;;29.40;51.30;;;;;;5094196;28;20403;-72
2022/07/09 15:10:19;;;;;;;3.60;0.95;;;29.40;51.10;;;;;;5093509;28;20039;-68
2022/07/09 15:13:25;;;;;;;6.88;0.98;;;29.40;50.60;;;;;;5093602;28;20032;-72
2022/07/09 15:16:29;;;;;;;3.28;1.15;;;29.30;49.90;;;;;;5093306;28;20047;-70
2022/07/09 15:19:33;;;;;;;4.00;1.23;;;29.20;50.70;;;;;;5091709;28;20471;-71
2022/07/09 15:22:37;;;;;;;5.72;1.05;;;29.20;51.00;;;;;;5091715;28;20040;-73
2022/07/09 15:25:41;;;;;;;5.15;1.40;;;29.20;51.50;;;;;;5091524;28;20055;-70
2022/07/09 15:28:45;;;;;;;2.40;1.08;;;29.10;51.10;;;;;;5091714;28;20442;-71
2022/07/09 15:31:49;;;;;;;2.78;1.20;;;29.00;50.80;;;;;;5091921;28;20043;-70
2022/07/09 15:34:53;;;;;;;3.30;1.35;;;29.10;51.10;;;;;;5093260;28;20071;-69
2022/07/09 15:37:57;;;;;;;4.07;1.25;;;29.00;50.80;;;;;;5093195;28;20036;-70
2022/07/09 15:41:01;;;;;;;2.53;0.90;;;29.10;50.50;;;;;;5093188;28;20048;-72
2022/07/09 15:44:05;;;;;;;4.95;1.02;;;29.10;50.90;;;;;;5092366;28;20051;-71
2022/07/09 15:47:09;;;;;;;5.05;1.00;;;29.10;51.00;;;;;;5093063;28;20036;-71
2022/07/09 15:50:13;;;;;;;6.45;1.10;;;29.10;50.70;;;;;;5092814;28;20048;-71
2022/07/09 15:53:17;;;;;;;6.97;1.60;;;29.10;50.50;;;;;;5092964;28;20498;-69
2022/07/09 15:56:23;;;;;;;4.00;1.25;;;29.10;51.00;;;;;;5093268;28;20040;-70
2022/07/09 15:59:27;;;;;;;4.43;1.40;;;29.10;50.80;;;;;;5092415;28;20047;-70
2022/07/09 16:02:32;;;;;;;4.53;1.60;;;29.10;51.10;;;;;;5092737;28;20035;-69
2022/07/09 16:05:36;;;;;;;6.47;1.40;;;29.00;51.30;;;;;;5092595;28;20052;-71
2022/07/09 16:08:40;;;;;;;6.90;2.42;;;28.90;51.40;;;;;;5092567;28;20491;-71
2022/07/09 16:15:24;;;;;;;5.13;1.15;;;28.90;51.10;;;;;;5065830;28;20047;-70
2022/07/09 16:18:28;;;;;;;5.23;1.00;;;28.90;50.90;;;;;;5092466;28;20472;-70
2022/07/09 16:21:32;;;;;;;4.65;1.10;;;28.90;50.70;;;;;;5092043;28;20292;-70
2022/07/09 16:24:37;;;;;;;3.25;1.13;;;28.80;50.70;;;;;;5091788;28;20061;-71
2022/07/09 16:27:44;;;;;;;5.55;1.50;;;28.90;51.10;;;;;;5091983;28;20491;-71
2022/07/09 16:30:48;;;;;;;12.30;5.00;;;28.90;51.20;;;;;;5091958;28;20036;-70
2022/07/09 16:33:52;;;;;;;3.28;1.30;;;28.90;51.30;;;;;;5091942;28;20047;-70
2022/07/09 16:36:56;;;;;;;5.93;1.17;;;29.00;51.10;;;;;;5092193;28;20043;-70
2022/07/09 16:40:01;;;;;;;8.38;1.25;;;28.90;51.40;;;;;;5092155;28;20047;-71
2022/07/09 16:43:06;;;;;;;3.63;1.30;;;28.90;51.70;;;;;;5090586;28;20383;-69
2022/07/09 16:46:10;;;;;;;5.95;1.60;;;28.90;51.50;;;;;;5090605;28;20048;-70
2022/07/09 16:49:15;;;;;;;3.92;1.48;;;29.00;51.20;;;;;;5091647;28;20035;-69
2022/07/09 16:52:19;;;;;;;6.63;1.40;;;28.90;51.10;;;;;;5091714;28;20475;-69
2022/07/09 16:55:23;;;;;;;5.78;1.77;;;28.90;51.60;;;;;;5091684;28;20043;-69
2022/07/09 16:58:27;;;;;;;2.75;1.23;;;28.90;51.50;;;;;;5091810;28;20036;-70
2022/07/09 17:01:33;;;;;;;3.35;1.13;;;28.70;51.60;;;;;;5091363;28;20036;-69
2022/07/09 17:04:37;;;;;;;3.53;1.17;;;28.60;51.40;;;;;;5090579;28;20044;-69
2022/07/09 17:07:42;;;;;;;4.18;1.15;;;28.50;51.30;;;;;;5090571;28;20035;-69
2022/07/09 17:10:46;;;;;;;3.85;1.10;;;28.50;52.00;;;;;;5090980;28;20058;-70
2022/07/09 17:13:50;;;;;;;5.28;1.58;;;28.40;52.20;;;;;;5090668;28;20446;-69
2022/07/09 17:16:54;;;;;;;7.32;1.10;;;28.40;52.50;;;;;;5091125;28;20043;-70
2022/07/09 17:19:58;;;;;;;6.03;1.35;;;28.40;52.80;;;;;;5091161;28;20024;-69
2022/07/09 17:23:03;;;;;;;7.57;1.50;;;28.30;53.00;;;;;;5091278;28;20044;-70
2022/07/09 17:26:07;;;;;;;5.72;1.20;;;28.30;53.30;;;;;;5090997;28;20608;-69
2022/07/09 17:29:11;;;;;;;9.10;1.90;;;28.20;53.30;;;;;;5090820;28;20041;-69
2022/07/09 17:32:15;;;;;;;4.63;1.30;;;28.10;53.80;;;;;;5091131;28;20043;-69
2022/07/09 17:35:19;;;;;;;6.18;1.63;;;28.00;54.00;;;;;;5091165;28;20032;-70
2022/07/09 17:38:23;;;;;;;7.35;1.23;;;27.90;54.30;;;;;;5091214;28;20047;-70
2022/07/09 17:41:28;;;;;;;5.25;1.40;;;27.80;54.40;;;;;;5089926;28;20391;-70
2022/07/09 17:44:32;;;;;;;6.85;1.30;;;27.80;54.50;;;;;;5090905;28;20047;-69
2022/07/09 17:47:36;;;;;;;8.27;1.90;;;27.80;54.80;;;;;;5090611;28;20040;-69
2022/07/09 17:50:40;;;;;;;11.38;2.20;;;27.80;55.00;;;;;;5090578;28;20055;-70
2022/07/09 17:53:47;;;;;;;4.53;1.58;;;27.70;55.10;;;;;;5090961;28;20043;-69